createdAt,value
2023-04-02T00:04:24.383Z,10.50
2023-04-02T00:07:21.881Z,10.40
2023-04-02T00:09:55.854Z,10.40
2023-04-02T00:12:30.427Z,9.60
2023-04-02T00:15:05.033Z,10.20
2023-04-02T00:17:38.749Z,9.10
2023-04-02T00:20:20.398Z,9.20
2023-04-02T00:22:53.942Z,10.80
2023-04-02T00:25:30.190Z,10.70
2023-04-02T00:28:04.670Z,11.30
2023-04-02T00:30:38.872Z,9.90
2023-04-02T00:33:19.985Z,9.60
2023-04-02T00:35:54.922Z,10.30
2023-04-02T00:38:31.994Z,10.80
2023-04-02T00:41:09.061Z,12.50
2023-04-02T00:43:51.276Z,11.50
2023-04-02T00:46:31.344Z,14.70
2023-04-02T00:49:11.663Z,11.10
2023-04-02T00:51:51.921Z,11.00
2023-04-02T00:54:29.704Z,11.50
2023-04-02T00:57:04.698Z,11.70
2023-04-02T00:59:45.851Z,12.60
2023-04-02T01:02:29.127Z,10.70
2023-04-02T01:05:04.600Z,11.70
2023-04-02T01:08:01.462Z,11.80
2023-04-02T01:11:02.458Z,11.00
2023-04-02T01:13:43.711Z,11.20
2023-04-02T01:16:24.976Z,10.10
2023-04-02T01:19:07.263Z,11.00
2023-04-02T01:21:53.254Z,9.20
2023-04-02T01:24:32.158Z,8.70
2023-04-02T01:29:47.023Z,8.80
2023-04-02T01:32:24.819Z,10.00
2023-04-02T01:34:59.905Z,8.20
2023-04-02T01:37:40.612Z,7.90
2023-04-02T01:40:30.285Z,8.50
2023-04-02T01:43:15.317Z,9.20
2023-04-02T01:45:49.230Z,8.20
2023-04-02T01:48:27.744Z,9.20
2023-04-02T01:51:04.328Z,8.60
2023-04-02T01:53:38.180Z,7.30
2023-04-02T01:56:12.053Z,8.80
2023-04-02T01:58:49.718Z,9.20
2023-04-02T02:01:28.881Z,7.40
2023-04-02T02:04:13.891Z,9.00
2023-04-02T02:06:49.072Z,8.40
2023-04-02T02:09:27.376Z,8.40
2023-04-02T02:12:03.727Z,7.10
2023-04-02T02:14:37.979Z,6.00
2023-04-02T02:17:16.409Z,8.60
2023-04-02T02:19:55.028Z,7.10
2023-04-02T02:22:32.445Z,6.50
2023-04-02T02:25:08.420Z,7.20
2023-04-02T02:28:01.575Z,6.70
2023-04-02T02:30:40.123Z,6.60
2023-04-02T02:33:22.970Z,6.20
2023-04-02T02:36:02.313Z,6.90
2023-04-02T02:38:54.418Z,6.70
2023-04-02T02:41:39.443Z,7.30
2023-04-02T02:44:20.466Z,7.00
2023-04-02T02:47:02.702Z,7.00
2023-04-02T02:49:39.698Z,7.70
2023-04-02T02:52:21.733Z,7.00
2023-04-02T02:55:14.719Z,7.60
2023-04-02T02:58:11.326Z,7.80
2023-04-02T03:00:54.136Z,8.90
2023-04-02T03:03:32.919Z,7.60
2023-04-02T03:06:11.111Z,8.20
2023-04-02T03:08:50.646Z,7.60
2023-04-02T03:11:35.609Z,8.50
2023-04-02T03:14:19.561Z,7.80
2023-04-02T03:17:00.615Z,8.40
2023-04-02T03:19:52.369Z,9.60
2023-04-02T03:22:32.462Z,8.10
2023-04-02T03:25:17.229Z,9.60
2023-04-02T03:27:55.846Z,8.90
2023-04-02T03:30:38.909Z,9.80
2023-04-02T03:33:19.104Z,9.30
2023-04-02T03:35:59.953Z,8.60
2023-04-02T03:38:38.858Z,9.90
2023-04-02T03:41:17.067Z,8.60
2023-04-02T03:43:55.971Z,10.00
2023-04-02T03:49:06.492Z,10.60
2023-04-02T03:51:49.372Z,11.60
2023-04-02T03:54:23.847Z,11.30
2023-04-02T03:56:58.573Z,14.50
2023-04-02T03:59:43.278Z,13.50
2023-04-02T04:02:40.427Z,12.40
2023-04-02T04:05:25.983Z,14.00
2023-04-02T04:08:05.230Z,13.10
2023-04-02T04:10:39.739Z,15.00
2023-04-02T04:13:19.582Z,13.20
2023-04-02T04:16:01.080Z,14.10
2023-04-02T04:18:43.010Z,16.50
2023-04-02T04:21:31.465Z,13.80
2023-04-02T04:24:25.124Z,13.60
2023-04-02T04:27:10.319Z,15.30
2023-04-02T04:29:54.008Z,15.70
2023-04-02T04:32:34.105Z,15.40
2023-04-02T04:35:27.873Z,15.60
2023-04-02T04:38:08.027Z,14.90
2023-04-02T04:40:52.779Z,14.60
2023-04-02T04:43:48.781Z,13.80
2023-04-02T04:46:29.335Z,13.60
2023-04-02T04:49:19.325Z,14.70
2023-04-02T04:54:30.198Z,14.80
2023-04-02T04:57:06.313Z,14.40
2023-04-02T04:59:46.107Z,14.00
2023-04-02T05:02:26.489Z,13.40
2023-04-02T05:05:02.412Z,13.40
2023-04-02T05:07:47.742Z,13.60
2023-04-02T05:10:30.644Z,13.40
2023-04-02T05:13:12.403Z,13.00
2023-04-02T05:15:52.747Z,15.20
2023-04-02T05:18:33.430Z,15.70
2023-04-02T05:21:16.133Z,18.10
2023-04-02T05:23:55.910Z,19.90
2023-04-02T05:26:47.507Z,17.40
2023-04-02T05:29:27.189Z,21.70
2023-04-02T05:32:06.268Z,19.10
2023-04-02T05:34:44.051Z,19.70
2023-04-02T05:37:21.352Z,18.00
2023-04-02T05:39:58.793Z,18.00
2023-04-02T05:42:37.524Z,18.70
2023-04-02T05:45:27.431Z,19.40
2023-04-02T05:48:04.760Z,18.70
2023-04-02T05:50:46.429Z,19.00
2023-04-02T05:53:32.610Z,18.40
2023-04-02T05:58:46.757Z,18.90
2023-04-02T06:01:41.395Z,20.80
2023-04-02T06:04:28.062Z,17.60
2023-04-02T06:07:10.880Z,17.80
2023-04-02T06:09:54.645Z,17.40
2023-04-02T06:12:35.125Z,17.20
2023-04-02T06:15:17.332Z,14.50
2023-04-02T06:18:01.692Z,14.90
2023-04-02T06:20:36.828Z,16.20
2023-04-02T06:23:17.838Z,13.70
2023-04-02T06:25:55.109Z,15.50
2023-04-02T06:28:35.055Z,12.80
2023-04-02T06:31:29.590Z,13.10
2023-04-02T06:34:04.947Z,12.90
2023-04-02T06:36:40.542Z,11.30
2023-04-02T06:39:23.126Z,12.90
2023-04-02T06:42:05.794Z,10.40
2023-04-02T06:44:59.114Z,10.40
2023-04-02T06:48:14.928Z,9.30
2023-04-02T06:50:56.977Z,10.40
2023-04-02T06:53:37.307Z,10.70
2023-04-02T06:56:22.492Z,9.10
2023-04-02T06:59:08.932Z,11.00
2023-04-02T07:01:47.009Z,11.30
2023-04-02T07:04:22.558Z,10.70
2023-04-02T07:06:59.278Z,13.20
2023-04-02T07:09:36.750Z,10.80
2023-04-02T07:12:16.209Z,13.00
2023-04-02T07:14:50.448Z,11.30
2023-04-02T07:17:24.831Z,11.30
2023-04-02T07:19:58.806Z,12.50
2023-04-02T07:22:35.438Z,12.30
2023-04-02T07:25:10.972Z,13.50
2023-04-02T07:28:06.465Z,11.10
2023-04-02T07:30:41.314Z,12.10
2023-04-02T07:33:17.019Z,12.70
2023-04-02T07:35:52.015Z,11.60
2023-04-02T07:38:25.806Z,13.50
2023-04-02T07:40:59.740Z,11.10
2023-04-02T07:43:33.606Z,11.40
2023-04-02T07:46:08.279Z,11.20
2023-04-02T07:48:42.402Z,11.80
2023-04-02T07:51:23.998Z,12.00
2023-04-02T07:53:58.006Z,11.00
2023-04-02T07:56:32.296Z,13.10
2023-04-02T07:59:06.736Z,12.80
2023-04-02T08:01:41.356Z,12.60
2023-04-02T08:04:21.800Z,10.70
2023-04-02T08:06:55.437Z,10.80
2023-04-02T08:09:29.194Z,12.10
2023-04-02T08:12:16.293Z,12.30
2023-04-02T08:14:49.838Z,13.20
2023-04-02T08:17:23.761Z,11.90
2023-04-02T08:20:01.786Z,13.30
2023-04-02T08:22:35.932Z,12.90
2023-04-02T08:25:11.704Z,12.20
2023-04-02T08:27:48.319Z,11.30
2023-04-02T08:30:22.592Z,12.30
2023-04-02T08:32:57.155Z,10.70
2023-04-02T08:35:31.698Z,12.60
2023-04-02T08:38:05.616Z,12.60
2023-04-02T08:40:41.612Z,13.30
2023-04-02T08:43:49.990Z,11.60
2023-04-02T08:49:02.450Z,12.50
2023-04-02T08:51:38.372Z,13.40
2023-04-02T08:54:23.924Z,12.70
2023-04-02T08:57:01.360Z,11.00
2023-04-02T08:59:40.918Z,11.80
2023-04-02T09:02:33.321Z,12.00
2023-04-02T09:05:18.034Z,13.70
2023-04-02T09:07:54.963Z,12.20
2023-04-02T09:10:39.163Z,9.20
2023-04-02T09:13:22.128Z,10.30
2023-04-02T09:16:03.343Z,9.60
2023-04-02T09:18:38.589Z,9.10
2023-04-02T09:21:36.923Z,10.00
2023-04-02T09:24:13.454Z,9.40
2023-04-02T09:26:48.096Z,10.80
2023-04-02T09:29:33.707Z,10.60
2023-04-02T09:32:20.336Z,10.50
2023-04-02T09:35:14.950Z,8.50
2023-04-02T09:38:19.677Z,9.70
2023-04-02T09:41:03.097Z,8.90
2023-04-02T09:43:38.342Z,9.20
2023-04-02T09:46:24.603Z,11.90
2023-04-02T09:49:01.457Z,9.30
2023-04-02T09:51:36.883Z,8.80
2023-04-02T09:54:18.474Z,8.00
2023-04-02T09:57:06.215Z,9.30
2023-04-02T09:59:40.479Z,44.20
2023-04-02T10:02:30.579Z,14.60
2023-04-02T10:05:29.947Z,12.60
2023-04-02T10:08:19.711Z,7.20
2023-04-02T10:10:57.307Z,7.10
2023-04-02T10:13:35.447Z,9.20
2023-04-02T10:16:12.941Z,7.80
2023-04-02T10:18:50.912Z,7.40
2023-04-02T10:21:29.804Z,7.70
2023-04-02T10:24:04.480Z,6.20
2023-04-02T10:26:50.079Z,7.80
2023-04-02T10:29:53.861Z,6.80
2023-04-02T10:32:37.750Z,7.80
2023-04-02T10:35:20.321Z,5.60
2023-04-02T10:38:21.158Z,7.60
2023-04-02T10:41:01.134Z,6.20
2023-04-02T10:43:57.815Z,7.70
2023-04-02T10:46:38.775Z,7.40
2023-04-02T10:49:24.188Z,10.60
2023-04-02T10:52:03.868Z,9.70
2023-04-02T10:54:50.428Z,8.30
2023-04-02T10:57:39.800Z,8.40
2023-04-02T11:00:25.863Z,8.10
2023-04-02T11:03:05.049Z,7.70
2023-04-02T11:05:45.458Z,9.00
2023-04-02T11:08:23.600Z,8.20
2023-04-02T11:11:04.496Z,8.30
2023-04-02T11:13:45.167Z,9.00
2023-04-02T11:16:19.203Z,8.30
2023-04-02T11:19:23.817Z,8.10
2023-04-02T11:22:01.866Z,9.80
2023-04-02T11:24:44.894Z,8.00
2023-04-02T11:27:26.254Z,9.00
2023-04-02T11:30:07.674Z,9.30
2023-04-02T11:32:46.557Z,10.20
2023-04-02T11:35:41.174Z,10.40
2023-04-02T11:38:57.549Z,11.60
2023-04-02T11:42:06.006Z,11.40
2023-04-02T11:44:40.497Z,11.10
2023-04-02T11:47:22.829Z,11.70
2023-04-02T11:50:29.347Z,9.70
2023-04-02T11:53:07.285Z,11.30
2023-04-02T11:55:42.265Z,10.80
2023-04-02T11:58:45.787Z,9.80
2023-04-02T12:01:38.739Z,12.20
2023-04-02T12:04:40.089Z,10.00
2023-04-02T12:07:35.838Z,9.60
2023-04-02T12:10:20.291Z,10.50
2023-04-02T12:12:55.112Z,10.50
2023-04-02T12:15:45.224Z,10.60
2023-04-02T12:18:23.170Z,10.30
2023-04-02T12:20:59.101Z,10.00
2023-04-02T12:23:35.134Z,10.40
2023-04-02T12:26:26.601Z,10.40
2023-04-02T12:29:18.607Z,12.10
2023-04-02T12:31:54.011Z,10.90
2023-04-02T12:34:31.052Z,10.30
2023-04-02T12:37:07.466Z,11.00
2023-04-02T12:39:41.609Z,11.60
2023-04-02T12:42:30.380Z,10.90
2023-04-02T12:45:07.106Z,10.60
2023-04-02T12:47:46.653Z,8.20
2023-04-02T12:50:22.558Z,8.60
2023-04-02T12:53:01.330Z,8.20
2023-04-02T12:58:22.135Z,8.00
2023-04-02T13:01:11.093Z,8.10
2023-04-02T13:04:01.611Z,9.80
2023-04-02T13:06:36.804Z,11.10
2023-04-02T13:09:26.838Z,10.30
2023-04-02T13:12:04.549Z,10.10
2023-04-02T13:14:39.202Z,10.50
2023-04-02T13:17:46.041Z,10.90
2023-04-02T13:20:38.714Z,11.00
2023-04-02T13:23:39.092Z,9.80
2023-04-02T13:26:24.822Z,9.50
2023-04-02T13:29:04.240Z,10.30
2023-04-02T13:31:38.356Z,8.90
2023-04-02T13:34:12.675Z,7.20
2023-04-02T13:36:46.800Z,8.50
2023-04-02T13:39:21.993Z,7.30
2023-04-02T13:42:00.108Z,10.40
2023-04-02T13:44:37.392Z,9.20
2023-04-02T13:47:17.558Z,8.90
2023-04-02T13:49:51.393Z,7.80
2023-04-02T13:52:24.994Z,9.30
2023-04-02T13:55:01.500Z,7.80
2023-04-02T13:57:36.825Z,7.90
2023-04-02T14:00:13.514Z,8.70
2023-04-02T14:02:54.405Z,9.80
2023-04-02T14:05:41.394Z,9.30
2023-04-02T14:08:25.619Z,8.90
2023-04-02T14:11:10.880Z,8.90
2023-04-02T14:14:06.431Z,7.90
2023-04-02T14:16:58.735Z,8.10
2023-04-02T14:19:49.703Z,8.30
2023-04-02T14:22:35.835Z,6.60
2023-04-02T14:25:20.068Z,7.70
2023-04-02T14:28:04.639Z,8.60
2023-04-02T14:30:54.961Z,6.10
2023-04-02T14:33:41.936Z,7.30
2023-04-02T14:36:26.309Z,7.50
2023-04-02T14:39:09.489Z,8.30
2023-04-02T14:41:50.763Z,8.80
2023-04-02T14:44:40.846Z,8.10
2023-04-02T14:47:24.169Z,7.50
2023-04-02T14:50:04.771Z,8.90
2023-04-02T14:52:42.159Z,7.90
2023-04-02T14:55:24.187Z,7.00
2023-04-02T14:58:02.294Z,7.40
2023-04-02T15:00:42.742Z,8.90
2023-04-02T15:03:25.446Z,10.20
2023-04-02T15:06:06.351Z,8.70
2023-04-02T15:08:52.284Z,7.40
2023-04-02T15:11:39.087Z,8.30
2023-04-02T15:14:22.118Z,8.70
2023-04-02T15:16:58.472Z,7.40
2023-04-02T15:19:34.722Z,10.00
2023-04-02T15:22:33.547Z,8.50
2023-04-02T15:25:17.949Z,9.20
2023-04-02T15:28:13.662Z,9.00
2023-04-02T15:30:57.966Z,8.20
2023-04-02T15:33:46.987Z,8.10
2023-04-02T15:36:58.627Z,8.80
2023-04-02T15:39:51.774Z,8.20
2023-04-02T15:42:30.944Z,7.80
2023-04-02T15:45:29.452Z,7.40
2023-04-02T15:51:06.802Z,9.00
2023-04-02T15:53:57.646Z,9.80
2023-04-02T15:56:42.966Z,10.20
2023-04-02T15:59:44.171Z,9.50
2023-04-02T16:02:40.947Z,9.50
2023-04-02T16:05:30.433Z,9.20
2023-04-02T16:08:33.596Z,9.00
2023-04-02T16:11:18.080Z,9.70
2023-04-02T16:13:54.764Z,10.50
2023-04-02T16:16:33.262Z,9.20
2023-04-02T16:19:17.190Z,12.90
2023-04-02T16:21:59.918Z,12.50
2023-04-02T16:24:34.960Z,9.10
2023-04-02T16:27:24.007Z,11.20
2023-04-02T16:30:25.775Z,10.30
2023-04-02T16:33:15.961Z,11.70
2023-04-02T16:36:07.489Z,13.00
2023-04-02T16:38:55.460Z,10.70
2023-04-02T16:41:44.099Z,11.40
2023-04-02T16:44:32.209Z,11.40
2023-04-02T16:47:24.348Z,11.50
2023-04-02T16:50:04.754Z,10.80
2023-04-02T16:52:52.670Z,10.20
2023-04-02T16:55:41.735Z,10.70
2023-04-02T16:58:35.862Z,11.00
2023-04-02T17:01:21.714Z,9.10
2023-04-02T17:04:26.824Z,10.50
2023-04-02T17:07:10.877Z,9.50
2023-04-02T17:09:54.874Z,11.30
2023-04-02T17:12:44.360Z,9.00
2023-04-02T17:15:28.256Z,10.00
2023-04-02T17:18:14.513Z,10.40
2023-04-02T17:20:51.895Z,11.70
2023-04-02T17:23:31.103Z,12.00
2023-04-02T17:26:13.043Z,11.70
2023-04-02T17:28:51.965Z,13.10
2023-04-02T17:31:35.243Z,12.30
2023-04-02T17:34:18.989Z,15.70
2023-04-02T17:37:07.941Z,11.90
2023-04-02T17:39:49.736Z,11.90
2023-04-02T17:42:36.034Z,9.10
2023-04-02T17:45:22.228Z,11.20
2023-04-02T17:48:07.246Z,12.40
2023-04-02T17:51:05.484Z,11.30
2023-04-02T17:54:05.443Z,11.80
2023-04-02T17:57:11.814Z,12.00
2023-04-02T18:00:03.946Z,13.70
2023-04-02T18:03:21.433Z,12.30
2023-04-02T18:06:02.517Z,13.40
2023-04-02T18:08:48.257Z,14.30
2023-04-02T18:11:40.337Z,14.90
2023-04-02T18:14:46.851Z,28.30
2023-04-02T18:17:31.799Z,29.60
2023-04-02T18:20:27.448Z,34.10
2023-04-02T18:23:10.746Z,24.30
2023-04-02T18:26:05.060Z,14.70
2023-04-02T18:28:58.366Z,30.80
2023-04-02T18:31:49.835Z,18.30
2023-04-02T18:34:56.281Z,19.20
2023-04-02T18:37:42.336Z,18.30
2023-04-02T18:40:35.441Z,20.00
2023-04-02T18:43:27.032Z,18.20
2023-04-02T18:46:09.660Z,27.40
2023-04-02T18:48:59.584Z,27.70
2023-04-02T18:51:43.874Z,20.20
2023-04-02T18:54:30.393Z,14.00
2023-04-02T18:57:16.528Z,13.60
2023-04-02T18:59:58.506Z,14.90
2023-04-02T19:02:50.562Z,10.50
2023-04-02T19:05:35.851Z,10.90
2023-04-02T19:08:19.514Z,14.20
2023-04-02T19:11:01.988Z,15.90
2023-04-02T19:13:42.681Z,11.80
2023-04-02T19:16:38.798Z,13.40
2023-04-02T19:19:22.124Z,13.00
2023-04-02T19:22:27.431Z,23.20
2023-04-02T19:25:33.500Z,20.50
2023-04-02T19:28:23.753Z,17.70
2023-04-02T19:31:20.830Z,14.80
2023-04-02T19:34:07.102Z,15.30
2023-04-02T19:36:58.978Z,14.00
2023-04-02T19:40:12.315Z,11.70
2023-04-02T19:42:55.856Z,11.40
2023-04-02T19:45:42.670Z,14.80
2023-04-02T19:48:23.752Z,11.60
2023-04-02T19:51:00.530Z,12.30
2023-04-02T19:53:36.761Z,12.70
2023-04-02T19:56:15.291Z,12.30
2023-04-02T19:58:52.851Z,11.90
2023-04-02T20:01:45.000Z,14.20
2023-04-02T20:04:22.490Z,12.70
2023-04-02T20:07:01.672Z,12.40
2023-04-02T20:09:38.625Z,14.30
2023-04-02T20:12:26.478Z,17.90
2023-04-02T20:15:36.678Z,14.10
2023-04-02T20:18:22.225Z,12.60
2023-04-02T20:21:45.785Z,12.40
2023-04-02T20:24:31.424Z,21.40
2023-04-02T20:27:13.945Z,15.30
2023-04-02T20:29:53.126Z,16.90
2023-04-02T20:32:30.751Z,12.80
2023-04-02T20:35:06.290Z,12.30
2023-04-02T20:37:43.290Z,18.90
2023-04-02T20:40:18.188Z,10.90
2023-04-02T20:42:53.836Z,13.40
2023-04-02T20:45:30.014Z,15.40
2023-04-02T20:48:03.850Z,10.80
2023-04-02T20:50:38.970Z,12.10
2023-04-02T20:53:12.971Z,11.90
2023-04-02T20:55:47.393Z,11.70
2023-04-02T20:58:22.012Z,16.60
2023-04-02T21:00:55.715Z,15.80
2023-04-02T21:03:29.726Z,13.80
2023-04-02T21:06:03.838Z,12.40
2023-04-02T21:08:37.693Z,10.90
2023-04-02T21:11:11.821Z,13.20
2023-04-02T21:13:45.790Z,13.00
2023-04-02T21:16:21.397Z,13.00
2023-04-02T21:18:56.625Z,12.50
2023-04-02T21:21:31.389Z,10.30
2023-04-02T21:24:07.293Z,8.60
2023-04-02T21:26:42.339Z,10.60
2023-04-02T21:29:16.595Z,8.60
2023-04-02T21:31:50.705Z,10.10
2023-04-02T21:34:24.818Z,10.70
2023-04-02T21:36:58.411Z,7.60
2023-04-02T21:39:32.270Z,8.10
2023-04-02T21:42:06.744Z,8.00
2023-04-02T21:44:40.640Z,9.90
2023-04-02T21:47:18.532Z,7.20
2023-04-02T21:49:52.232Z,8.50
2023-04-02T21:52:25.777Z,10.30
2023-04-02T21:54:59.459Z,11.90
2023-04-02T21:57:33.164Z,8.30
2023-04-02T22:00:12.649Z,9.90
2023-04-02T22:02:46.394Z,8.00
2023-04-02T22:05:20.417Z,6.80
2023-04-02T22:07:54.108Z,8.00
2023-04-02T22:10:27.921Z,8.10
2023-04-02T22:13:01.646Z,5.30
2023-04-02T22:15:36.582Z,7.60
2023-04-02T22:18:10.818Z,8.40
2023-04-02T22:20:44.942Z,9.00
2023-04-02T22:23:19.488Z,10.50
2023-04-02T22:25:53.906Z,7.50
2023-04-02T22:28:27.937Z,10.40
2023-04-02T22:31:08.618Z,7.90
2023-04-02T22:33:43.232Z,6.30
2023-04-02T22:36:18.976Z,7.70
2023-04-02T22:38:52.872Z,7.20
2023-04-02T22:41:28.409Z,6.20
2023-04-02T22:44:02.892Z,12.30
2023-04-02T22:46:37.425Z,10.30
2023-04-02T22:49:12.164Z,7.60
2023-04-02T22:52:07.322Z,6.30
2023-04-02T22:54:41.428Z,6.50
2023-04-02T22:57:15.093Z,4.70
2023-04-02T22:59:48.567Z,5.00
2023-04-02T23:02:22.947Z,7.20
2023-04-02T23:04:57.422Z,4.70
2023-04-02T23:07:31.751Z,4.70
2023-04-02T23:10:05.903Z,4.50
2023-04-02T23:12:39.639Z,2.80
2023-04-02T23:15:14.696Z,3.70
2023-04-02T23:17:51.776Z,3.60
2023-04-02T23:20:25.870Z,6.40
2023-04-02T23:22:59.796Z,6.40
2023-04-02T23:25:33.311Z,4.60
2023-04-02T23:28:08.065Z,5.10
2023-04-02T23:30:42.930Z,5.10
2023-04-02T23:33:16.610Z,4.20
2023-04-02T23:36:00.267Z,7.00
2023-04-02T23:38:34.270Z,2.70
2023-04-02T23:41:29.664Z,5.30
2023-04-02T23:44:03.962Z,3.30
2023-04-02T23:46:41.860Z,5.80
2023-04-02T23:49:16.127Z,6.30
2023-04-02T23:51:49.832Z,6.20
2023-04-02T23:54:23.810Z,4.20
2023-04-02T23:57:17.961Z,4.30
2023-04-02T23:59:51.566Z,4.40
